Aeroporto :
LOGIN :

Iscrizione | Disclaimer

   EN    FR    IT 

 










Sommario :    VFR   VFR Marginale   IFR   IFR Intensivo   IFR Molto Intensivo
Visibilità : 
Base nubi : 
>= 8 km
>= 3000ft
5 / 8 km
1000 / 3000 ft
1500m / 5 km
500 / 1000 ft
800 / 1500m
200 / 500 ft
< 800m
< 200 ft
Simboli :   Temporali  Nebbia  Neve Forte  Precipitazioni Forti  Vento > 20 kt
SIGMETs :   Varie  Temporali  Ghiacco  Turbolenza  Onda orograficha  Ceneri Vulcaniche






- Altitudine del aeroporto : 587 ft
- Codice IATA : XCR


LFOK - Chalons Vatry

ULTIMO METAR :
  • 170330Z AUTO 22013KT 9999 BKN013 OVC020 08/07 Q1017 TEMPO 25015G25KT 3000 RA BKN008 SCT020TCU

METARs OBSOLETI :
  • 170300Z AUTO 23013KT 9999 SCT012 BKN019 OVC100 08/07 Q1016 TEMPO 25015G25KT 3000 RA BKN008 SCT020TCU
  • 170230Z AUTO 22014KT 9999 FEW011/// SCT068/// BKN090/// ///TCU 08/07 Q1016 TEMPO 25015G25KT 3000 RA BKN008 SCT020TCU
  • 170200Z AUTO 22015KT 9999 FEW036/// SCT066/// BKN092/// ///TCU 08/07 Q1016 TEMPO 25015G25KT 3000 RA BKN008 SCT020TCU
  • 170130Z AUTO 22014KT 9999 -RA FEW036/// BKN050/// BKN074/// ///CB 08/07 Q1016 TEMPO 25015G25KT 3000 RA BKN008 SCT020TCU
  • 170100Z AUTO 24016KT 9999 -RA FEW014/// BKN060/// OVC070/// ///TCU 08/08 Q1016 TEMPO 25015G25KT 3000 RA BKN008 SCT020TCU

TAF TAF LFOK
Valido dal 17 a 00 ore il 18 a 00 ore UTC


162300Z 1700/1724 22015KT 9999 SCT015 BKN030
TEMPO 1700/1709 25015G25KT 3000 RA BKN008 SCT020TCU
BECMG 1709/1711 22015G25KT
TEMPO 1712/1718 25020G35KT 4000 SHRA BKN013TCU
PROB40
TEMPO 1714/1717 26025G45KT 2000 SHRA BKN030CB
BECMG 1718/1720 22015KT



MetMap, La meteo Aeronautica in un colpo d'occhio ! - Copyright ORBIFLY Dicembre 2007 - Disclaimer

ORBIFLY MET'MAP TEAM :

Programmazione e sviluppo : Alexandra Zaïnal
Concezione : Baudouin d'Aumeries
Aiuto per la programmazione : Marc-Olivier Méhu
Supporto tecnico e logistico : Manuel Goepfert
Aiuto per la traduzione : Arnaldo La Scala

Contatto : metmap@orbifly.com




FONTI E CREDITI :

   NOAA